Map

Track Data

SID SEASON NUMBER BASIN SUBBASIN NAME ISO_TIME NATURE LAT LON WMO_WIND WMO_PRES WMO_AGENCY TRACK_TYPE DIST2LAND LANDFALL IFLAG USA_AGENCY USA_ATCF_ID USA_LAT USA_LON USA_RECORD USA_STATUS USA_WIND USA_PRES USA_SSHS USA_R34_NE USA_R34_SE USA_R34_SW USA_R34_NW USA_R50_NE USA_R50_SE USA_R50_SW USA_R50_NW USA_R64_NE USA_R64_SE USA_R64_SW USA_R64_NW USA_POCI USA_ROCI USA_RMW USA_EYE TOKYO_LAT TOKYO_LON TOKYO_GRADE TOKYO_WIND TOKYO_PRES TOKYO_R50_DIR TOKYO_R50_LONG TOKYO_R50_SHORT TOKYO_R30_DIR TOKYO_R30_LONG TOKYO_R30_SHORT TOKYO_LAND CMA_LAT CMA_LON CMA_CAT CMA_WIND CMA_PRES HKO_LAT HKO_LON HKO_CAT HKO_WIND HKO_PRES NEWDELHI_LAT NEWDELHI_LON NEWDELHI_GRADE NEWDELHI_WIND NEWDELHI_PRES NEWDELHI_CI NEWDELHI_DP NEWDELHI_POCI REUNION_LAT REUNION_LON REUNION_TYPE REUNION_WIND REUNION_PRES REUNION_TNUM REUNION_CI REUNION_RMW REUNION_R34_NE REUNION_R34_SE REUNION_R34_SW REUNION_R34_NW REUNION_R50_NE REUNION_R50_SE REUNION_R50_SW REUNION_R50_NW REUNION_R64_NE REUNION_R64_SE REUNION_R64_SW REUNION_R64_NW BOM_LAT BOM_LON BOM_TYPE BOM_WIND BOM_PRES BOM_TNUM BOM_CI BOM_RMW BOM_R34_NE BOM_R34_SE BOM_R34_SW BOM_R34_NW BOM_R50_NE BOM_R50_SE BOM_R50_SW BOM_R50_NW BOM_R64_NE BOM_R64_SE BOM_R64_SW BOM_R64_NW BOM_ROCI BOM_POCI BOM_EYE BOM_POS_METHOD BOM_PRES_METHOD NADI_LAT NADI_LON NADI_CAT NADI_WIND NADI_PRES WELLINGTON_LAT WELLINGTON_LON WELLINGTON_WIND WELLINGTON_PRES DS824_LAT DS824_LON DS824_STAGE DS824_WIND DS824_PRES TD9636_LAT TD9636_LON TD9636_STAGE TD9636_WIND TD9636_PRES TD9635_LAT TD9635_LON TD9635_WIND TD9635_PRES TD9635_ROCI NEUMANN_LAT NEUMANN_LON NEUMANN_CLASS NEUMANN_WIND NEUMANN_PRES MLC_LAT MLC_LON MLC_CLASS MLC_WIND MLC_PRES USA_GUST BOM_GUST BOM_GUST_PER REUNION_GUST REUNION_GUST_PER USA_SEAHGT USA_SEARAD_NE USA_SEARAD_SE USA_SEARAD_SW USA_SEARAD_NW STORM_SPEED STORM_DIR
1887332N22293 1887 74 NA NA NOT_NAMED 1887-11-27 12:00:00 TS 22.1000 -67.0000 35 hurdat_atl main 394 389 O_____________ hurdat_atl AL171887 22.1000 -67.0000 TS 35 0 18 305
1887332N22293 1887 74 NA NA NOT_NAMED 1887-11-27 15:00:00 TS 22.6234 -67.8137 main 400 400 P_____________ AL171887 22.6234 -67.8137 TS 37 0 18 304
1887332N22293 1887 74 NA NA NOT_NAMED 1887-11-27 18:00:00 TS 23.1000 -68.6000 40 hurdat_atl main 417 413 O_____________ hurdat_atl AL171887 23.1000 -68.6000 TS 40 0 16 302
1887332N22293 1887 74 NA NA NOT_NAMED 1887-11-27 21:00:00 TS 23.4946 -69.3304 main 434 423 P_____________ AL171887 23.4946 -69.3304 TS 40 0 15 299
1887332N22293 1887 74 NA NA NOT_NAMED 1887-11-28 00:00:00 TS 23.8000 -70.0000 40 hurdat_atl main 423 398 O_____________ hurdat_atl AL171887 23.8000 -70.0000 TS 40 0 13 294
1887332N22293 1887 74 NA NA NOT_NAMED 1887-11-28 03:00:00 TS 24.0296 -70.6155 main 398 382 P_____________ AL171887 24.0296 -70.6155 TS 42 0 12 290
1887332N22293 1887 74 NA NA NOT_NAMED 1887-11-28 06:00:00 TS 24.2000 -71.2000 45 hurdat_atl main 382 371 O_____________ hurdat_atl AL171887 24.2000 -71.2000 TS 45 0 12 287
1887332N22293 1887 74 NA NA NOT_NAMED 1887-11-28 09:00:00 TS 24.3803 -71.8598 main 375 369 P_____________ AL171887 24.3803 -71.8598 TS 47 0 11 285
1887332N22293 1887 74 NA NA NOT_NAMED 1887-11-28 12:00:00 TS 24.5000 -72.4000 50 hurdat_atl main 373 370 O_____________ hurdat_atl AL171887 24.5000 -72.4000 TS 50 0 7 282
1887332N22293 1887 74 NA NA NOT_NAMED 1887-11-28 15:00:00 TS 24.5296 -72.6602 main 370 369 P_____________ AL171887 24.5296 -72.6602 TS 52 0 4 270
1887332N22293 1887 74 NA NA NOT_NAMED 1887-11-28 18:00:00 TS 24.5000 -72.8000 55 hurdat_atl main 369 368 O_____________ hurdat_atl AL171887 24.5000 -72.8000 TS 55 0 3 260
1887332N22293 1887 74 NA NA NOT_NAMED 1887-11-28 21:00:00 TS 24.4725 -73.0150 main 368 357 P_____________ AL171887 24.4725 -73.0150 TS 57 0 4 255
1887332N22293 1887 74 NA NA NOT_NAMED 1887-11-29 00:00:00 TS 24.4000 -73.2000 60 hurdat_atl main 357 346 O_____________ hurdat_atl AL171887 24.4000 -73.2000 TS 60 0 3 235
1887332N22293 1887 74 NA NA NOT_NAMED 1887-11-29 03:00:00 TS 24.2725 -73.3225 main 346 324 P_____________ AL171887 24.2725 -73.3225 TS 62 0 4 211
1887332N22293 1887 74 NA NA NOT_NAMED 1887-11-29 06:00:00 TS 24.1000 -73.4000 65 hurdat_atl main 324 303 O_____________ hurdat_atl AL171887 24.1000 -73.4000 HU 65 1 4 203
1887332N22293 1887 74 NA NA NOT_NAMED 1887-11-29 09:00:00 TS 23.9075 -73.4876 main 303 281 P_____________ AL171887 23.9075 -73.4876 HU 67 1 4 192
1887332N22293 1887 74 NA NA NOT_NAMED 1887-11-29 12:00:00 TS 23.7000 -73.5000 70 hurdat_atl main 281 257 O_____________ hurdat_atl AL171887 23.7000 -73.5000 HU 70 1 5 169
1887332N22293 1887 74 NA NA NOT_NAMED 1887-11-29 15:00:00 TS 23.4624 -73.4023 main 257 234 P_____________ AL171887 23.4624 -73.4023 HU 70 1 5 146
1887332N22293 1887 74 NA NA NOT_NAMED 1887-11-29 18:00:00 TS 23.3000 -73.2000 70 hurdat_atl main 234 234 O_____________ hurdat_atl AL171887 23.3000 -73.2000 HU 70 1 5 111
1887332N22293 1887 74 NA NA NOT_NAMED 1887-11-29 21:00:00 TS 23.2975 -72.9375 main 235 235 P_____________ AL171887 23.2975 -72.9375 HU 70 1 6 80
1887332N22293 1887 74 NA NA NOT_NAMED 1887-11-30 00:00:00 TS 23.4000 -72.6000 70 hurdat_atl main 249 249 O_____________ hurdat_atl AL171887 23.4000 -72.6000 HU 70 1 7 71
1887332N22293 1887 74 NA NA NOT_NAMED 1887-11-30 03:00:00 TS 23.5352 -72.1926 main 269 269 P_____________ AL171887 23.5352 -72.1926 HU 70 1 8 68
1887332N22293 1887 74 NA NA NOT_NAMED 1887-11-30 06:00:00 TS 23.7000 -71.8000 70 hurdat_atl main 305 305 O_____________ hurdat_atl AL171887 23.7000 -71.8000 HU 70 1 7 63
1887332N22293 1887 74 NA NA NOT_NAMED 1887-11-30 09:00:00 TS 23.8346 -71.5571 main 324 324 P_____________ AL171887 23.8346 -71.5571 HU 70 1 5 57
1887332N22293 1887 74 NA NA NOT_NAMED 1887-11-30 12:00:00 TS 24.0000 -71.3000 70 hurdat_atl main 358 358 O_____________ hurdat_atl AL171887 24.0000 -71.3000 HU 70 1 7 57
1887332N22293 1887 74 NA NA NOT_NAMED 1887-11-30 15:00:00 TS 24.2275 -70.8875 main 398 398 P_____________ AL171887 24.2275 -70.8875 HU 67 1 10 59
1887332N22293 1887 74 NA NA NOT_NAMED 1887-11-30 18:00:00 TS 24.5000 -70.4000 65 hurdat_atl main 454 454 O_____________ hurdat_atl AL171887 24.5000 -70.4000 HU 65 1 11 58
1887332N22293 1887 74 NA NA NOT_NAMED 1887-11-30 21:00:00 TS 24.8000 -69.8926 main 512 512 P_____________ AL171887 24.8000 -69.8926 HU 62 0 11 57
1887332N22293 1887 74 NA NA NOT_NAMED 1887-12-01 00:00:00 TS 25.1000 -69.4000 60 hurdat_atl main 570 570 O_____________ hurdat_atl AL171887 25.1000 -69.4000 TS 60 0 10 56
1887332N22293 1887 74 NA NA NOT_NAMED 1887-12-01 03:00:00 TS 25.3419 -69.0217 main 613 613 P_____________ AL171887 25.3419 -69.0217 TS 60 0 9 55
1887332N22293 1887 74 NA NA NOT_NAMED 1887-12-01 06:00:00 TS 25.6000 -68.6000 60 hurdat_atl main 665 665 O_____________ hurdat_atl AL171887 25.6000 -68.6000 TS 60 0 11 58
1887332N22293 1887 74 NA NA NOT_NAMED 1887-12-01 09:00:00 TS 25.9505 -67.9581 main 739 739 P_____________ AL171887 25.9505 -67.9581 TS 60 0 14 59
1887332N22293 1887 74 NA NA NOT_NAMED 1887-12-01 12:00:00 TS 26.3000 -67.3000 60 hurdat_atl main 798 798 O_____________ hurdat_atl AL171887 26.3000 -67.3000 TS 60 0 12 59
1887332N22293 1887 74 NA NA NOT_NAMED 1887-12-01 15:00:00 TS 26.5569 -66.8342 main 847 847 P_____________ AL171887 26.5569 -66.8342 TS 60 0 9 58
1887332N22293 1887 74 NA NA NOT_NAMED 1887-12-01 18:00:00 TS 26.8000 -66.4000 60 hurdat_atl main 884 884 O_____________ hurdat_atl AL171887 26.8000 -66.4000 TS 60 0 10 58
1887332N22293 1887 74 NA NA NOT_NAMED 1887-12-01 21:00:00 TS 27.1002 -65.8427 main 941 941 P_____________ AL171887 27.1002 -65.8427 TS 57 0 11 59
1887332N22293 1887 74 NA NA NOT_NAMED 1887-12-02 00:00:00 TS 27.4000 -65.3000 55 hurdat_atl main 992 992 O_____________ hurdat_atl AL171887 27.4000 -65.3000 TS 55 0 10 57
1887332N22293 1887 74 NA NA NOT_NAMED 1887-12-02 03:00:00 TS 27.6495 -64.8919 main 1030 1030 P_____________ AL171887 27.6495 -64.8919 TS 55 0 9 55
1887332N22293 1887 74 NA NA NOT_NAMED 1887-12-02 06:00:00 TS 27.9000 -64.5000 55 hurdat_atl main 1067 1067 O_____________ hurdat_atl AL171887 27.9000 -64.5000 TS 55 0 10 55
1887332N22293 1887 74 NA NA NOT_NAMED 1887-12-02 09:00:00 TS 28.1926 -64.0001 main 1107 1107 P_____________ AL171887 28.1926 -64.0001 TS 55 0 11 56
1887332N22293 1887 74 NA NA NOT_NAMED 1887-12-02 12:00:00 TS 28.5000 -63.5000 55 hurdat_atl main 1148 1148 O_____________ hurdat_atl AL171887 28.5000 -63.5000 TS 55 0 10 53
1887332N22293 1887 74 NA NA NOT_NAMED 1887-12-02 15:00:00 TS 28.7922 -63.0846 main 1189 1189 P_____________ AL171887 28.7922 -63.0846 TS 55 0 9 49
1887332N22293 1887 74 NA NA NOT_NAMED 1887-12-02 18:00:00 TS 29.1000 -62.7000 55 hurdat_atl main 1231 1231 O_____________ hurdat_atl AL171887 29.1000 -62.7000 TS 55 0 9 46
1887332N22293 1887 74 NA NA NOT_NAMED 1887-12-02 21:00:00 TS 29.4423 -62.3072 main 1273 1273 P_____________ AL171887 29.4423 -62.3072 TS 52 0 10 45
1887332N22293 1887 74 NA NA NOT_NAMED 1887-12-03 00:00:00 TS 29.8000 -61.9000 50 hurdat_atl main 1327 1327 O_____________ hurdat_atl AL171887 29.8000 -61.9000 TS 50 0 10 46
1887332N22293 1887 74 NA NA NOT_NAMED 1887-12-03 03:00:00 TS 30.1651 -61.4426 main 1385 1385 P_____________ AL171887 30.1651 -61.4426 TS 50 0 10 48
1887332N22293 1887 74 NA NA NOT_NAMED 1887-12-03 06:00:00 TS 30.5000 -61.0000 50 hurdat_atl main 1429 1429 O_____________ hurdat_atl AL171887 30.5000 -61.0000 TS 50 0 9 49
1887332N22293 1887 74 NA NA NOT_NAMED 1887-12-03 09:00:00 TS 30.7647 -60.6420 main 1473 1457 P_____________ AL171887 30.7647 -60.6420 TS 50 0 8 50
1887332N22293 1887 74 NA NA NOT_NAMED 1887-12-03 12:00:00 TS 31.0000 -60.3000 50 hurdat_atl main 1459 1443 O_____________ hurdat_atl AL171887 31.0000 -60.3000 TS 50 0 8 53
1887332N22293 1887 74 NA NA NOT_NAMED 1887-12-03 15:00:00 TS 31.2500 -59.8999 main 1438 1426 P_____________ AL171887 31.2500 -59.8999 TS 50 0 8 54
1887332N22293 1887 74 NA NA NOT_NAMED 1887-12-03 18:00:00 TS 31.5000 -59.5000 50 hurdat_atl main 1429 1414 O_____________ hurdat_atl AL171887 31.5000 -59.5000 TS 50 0 8 52
1887332N22293 1887 74 NA NA NOT_NAMED 1887-12-03 21:00:00 TS 31.7194 -59.1863 main 1418 1397 P_____________ AL171887 31.7194 -59.1863 TS 50 0 8 50
1887332N22293 1887 74 NA NA NOT_NAMED 1887-12-04 00:00:00 TS 32.0000 -58.8000 50 hurdat_atl main 1400 1381 O_____________ hurdat_atl AL171887 32.0000 -58.8000 TS 50 0 11 51
1887332N22293 1887 74 NA NA NOT_NAMED 1887-12-04 03:00:00 TS 32.4131 -58.1731 main 1381 1360 P_____________ AL171887 32.4131 -58.1731 TS 50 0 14 51
1887332N22293 1887 74 NA NA NOT_NAMED 1887-12-04 06:00:00 TS 32.9000 -57.5000 50 hurdat_atl main 1360 1334 O_____________ hurdat_atl AL171887 32.9000 -57.5000 TS 50 0 14 46
1887332N22293 1887 74 NA NA NOT_NAMED 1887-12-04 09:00:00 TS 33.3920 -56.9767 main 1334 1310 P_____________ AL171887 33.3920 -56.9767 TS 47 0 13 40
1887332N22293 1887 74 NA NA NOT_NAMED 1887-12-04 12:00:00 TS 33.9000 -56.5000 45 hurdat_atl main 1310 1277 O_____________ hurdat_atl AL171887 33.9000 -56.5000 TS 45 0 13 38
1887332N22293 1887 74 NA NA NOT_NAMED 1887-12-04 15:00:00 TS 34.4031 -56.0088 main 1277 1240 P_____________ AL171887 34.4031 -56.0088 TS 42 0 13 40
1887332N22293 1887 74 NA NA NOT_NAMED 1887-12-04 18:00:00 TS 34.9000 -55.5000 40 hurdat_atl main 1240 O_____________ hurdat_atl AL171887 34.9000 -55.5000 TS 40 0 13 40

About IBTrACS Database

This database is a web-friendly format of International Best Track Archive for Climate Stewardship (IBTrACS), a global best track data archive curated by NOAA dating back to 1842.

Updated: 2021-11-26